sensor_id;sensor_type;location;lat;lon;timestamp;temperature;humidity
13416;DHT22;6779;50.150;8.680;2023-01-24T00:00:53;2.00;99.90
13416;DHT22;6779;50.150;8.680;2023-01-24T00:03:19;2.00;99.90
13416;DHT22;6779;50.150;8.680;2023-01-24T00:05:46;2.00;99.90
13416;DHT22;6779;50.150;8.680;2023-01-24T00:08:13;2.00;49.00
13416;DHT22;6779;50.150;8.680;2023-01-24T00:10:40;2.10;1.00
13416;DHT22;6779;50.150;8.680;2023-01-24T00:13:06;2.10;1.00
13416;DHT22;6779;50.150;8.680;2023-01-24T00:15:32;2.00;1.00
13416;DHT22;6779;50.150;8.680;2023-01-24T00:17:58;1.90;99.90
13416;DHT22;6779;50.150;8.680;2023-01-24T00:20:24;2.00;99.90
13416;DHT22;6779;50.150;8.680;2023-01-24T00:22:50;2.00;99.90
13416;DHT22;6779;50.150;8.680;2023-01-24T00:25:16;2.00;99.90
13416;DHT22;6779;50.150;8.680;2023-01-24T00:27:41;1.90;1.00
13416;DHT22;6779;50.150;8.680;2023-01-24T00:30:07;1.90;1.00
13416;DHT22;6779;50.150;8.680;2023-01-24T00:32:33;2.00;1.00
13416;DHT22;6779;50.150;8.680;2023-01-24T00:34:59;1.90;99.90
13416;DHT22;6779;50.150;8.680;2023-01-24T00:37:25;1.90;1.00
13416;DHT22;6779;50.150;8.680;2023-01-24T00:39:50;2.00;1.00
13416;DHT22;6779;50.150;8.680;2023-01-24T00:42:16;1.90;1.00
13416;DHT22;6779;50.150;8.680;2023-01-24T00:44:41;1.90;1.00
13416;DHT22;6779;50.150;8.680;2023-01-24T00:47:07;2.00;1.00
13416;DHT22;6779;50.150;8.680;2023-01-24T00:49:32;1.90;56.40
13416;DHT22;6779;50.150;8.680;2023-01-24T00:51:58;1.90;99.90
13416;DHT22;6779;50.150;8.680;2023-01-24T00:54:23;1.80;99.90
13416;DHT22;6779;50.150;8.680;2023-01-24T00:56:49;1.70;1.00
13416;DHT22;6779;50.150;8.680;2023-01-24T00:59:14;1.70;58.60
13416;DHT22;6779;50.150;8.680;2023-01-24T01:01:40;1.80;2.50
13416;DHT22;6779;50.150;8.680;2023-01-24T01:04:05;1.70;1.00
13416;DHT22;6779;50.150;8.680;2023-01-24T01:06:31;1.70;99.90
13416;DHT22;6779;50.150;8.680;2023-01-24T01:08:57;1.80;1.00
13416;DHT22;6779;50.150;8.680;2023-01-24T01:11:22;1.70;1.00
13416;DHT22;6779;50.150;8.680;2023-01-24T01:13:48;1.70;8.00
13416;DHT22;6779;50.150;8.680;2023-01-24T01:16:16;1.80;99.90
13416;DHT22;6779;50.150;8.680;2023-01-24T01:18:44;1.80;1.00
13416;DHT22;6779;50.150;8.680;2023-01-24T01:21:16;1.80;6.20
13416;DHT22;6779;50.150;8.680;2023-01-24T01:23:42;1.80;1.00
13416;DHT22;6779;50.150;8.680;2023-01-24T01:26:10;1.70;1.00
13416;DHT22;6779;50.150;8.680;2023-01-24T01:28:38;1.70;1.00
13416;DHT22;6779;50.150;8.680;2023-01-24T01:31:03;1.80;99.90
13416;DHT22;6779;50.150;8.680;2023-01-24T01:33:29;1.80;99.90
13416;DHT22;6779;50.150;8.680;2023-01-24T01:35:55;1.80;99.90
13416;DHT22;6779;50.150;8.680;2023-01-24T01:38:21;1.70;99.90
13416;DHT22;6779;50.150;8.680;2023-01-24T01:40:46;1.70;1.00
13416;DHT22;6779;50.150;8.680;2023-01-24T01:43:14;1.70;13.40
13416;DHT22;6779;50.150;8.680;2023-01-24T01:45:50;1.70;99.90
13416;DHT22;6779;50.150;8.680;2023-01-24T01:51:02;1.70;1.00
13416;DHT22;6779;50.150;8.680;2023-01-24T01:53:31;1.70;56.40
13416;DHT22;6779;50.150;8.680;2023-01-24T01:56:05;1.70;1.00
13416;DHT22;6779;50.150;8.680;2023-01-24T01:58:32;1.70;99.90
13416;DHT22;6779;50.150;8.680;2023-01-24T02:00:58;1.60;76.60
13416;DHT22;6779;50.150;8.680;2023-01-24T02:03:34;1.70;99.90
13416;DHT22;6779;50.150;8.680;2023-01-24T02:06:08;1.60;1.00
13416;DHT22;6779;50.150;8.680;2023-01-24T02:08:36;1.60;32.40
13416;DHT22;6779;50.150;8.680;2023-01-24T02:11:01;1.60;1.00
13416;DHT22;6779;50.150;8.680;2023-01-24T02:13:46;1.60;1.00
13416;DHT22;6779;50.150;8.680;2023-01-24T02:16:14;1.60;55.60
13416;DHT22;6779;50.150;8.680;2023-01-24T02:18:41;1.60;1.00
13416;DHT22;6779;50.150;8.680;2023-01-24T02:21:10;1.60;94.80
13416;DHT22;6779;50.150;8.680;2023-01-24T02:23:52;1.60;99.90
13416;DHT22;6779;50.150;8.680;2023-01-24T02:26:26;1.50;1.00
13416;DHT22;6779;50.150;8.680;2023-01-24T02:28:58;1.50;1.00
13416;DHT22;6779;50.150;8.680;2023-01-24T02:31:25;1.60;99.30
13416;DHT22;6779;50.150;8.680;2023-01-24T02:33:51;1.60;83.60
13416;DHT22;6779;50.150;8.680;2023-01-24T02:36:20;1.50;66.30
13416;DHT22;6779;50.150;8.680;2023-01-24T02:39:55;1.60;99.90
13416;DHT22;6779;50.150;8.680;2023-01-24T02:42:14;1.60;99.90
13416;DHT22;6779;50.150;8.680;2023-01-24T02:45:14;1.60;99.90
13416;DHT22;6779;50.150;8.680;2023-01-24T02:47:43;1.60;99.90
13416;DHT22;6779;50.150;8.680;2023-01-24T02:50:10;1.60;99.90
13416;DHT22;6779;50.150;8.680;2023-01-24T02:52:35;1.70;99.90
13416;DHT22;6779;50.150;8.680;2023-01-24T02:55:20;1.80;99.90
13416;DHT22;6779;50.150;8.680;2023-01-24T02:57:45;1.80;74.60
13416;DHT22;6779;50.150;8.680;2023-01-24T03:00:30;1.80;99.90
13416;DHT22;6779;50.150;8.680;2023-01-24T03:02:55;1.90;1.00
13416;DHT22;6779;50.150;8.680;2023-01-24T03:05:21;1.90;1.00
13416;DHT22;6779;50.150;8.680;2023-01-24T03:07:46;1.90;1.00
13416;DHT22;6779;50.150;8.680;2023-01-24T03:10:14;1.80;99.90
13416;DHT22;6779;50.150;8.680;2023-01-24T03:12:40;1.90;99.90
13416;DHT22;6779;50.150;8.680;2023-01-24T03:15:25;1.80;99.90
13416;DHT22;6779;50.150;8.680;2023-01-24T03:18:10;1.90;1.00
13416;DHT22;6779;50.150;8.680;2023-01-24T03:20:55;1.90;99.90
13416;DHT22;6779;50.150;8.680;2023-01-24T03:23:39;1.90;1.00
13416;DHT22;6779;50.150;8.680;2023-01-24T03:26:23;1.80;99.90
13416;DHT22;6779;50.150;8.680;2023-01-24T03:29:08;1.80;1.00
13416;DHT22;6779;50.150;8.680;2023-01-24T03:31:52;1.90;99.90
13416;DHT22;6779;50.150;8.680;2023-01-24T03:34:36;1.90;1.00
13416;DHT22;6779;50.150;8.680;2023-01-24T03:37:15;1.80;99.90
13416;DHT22;6779;50.150;8.680;2023-01-24T03:39:41;1.80;99.90
13416;DHT22;6779;50.150;8.680;2023-01-24T03:42:19;1.80;99.90
13416;DHT22;6779;50.150;8.680;2023-01-24T03:44:44;1.80;99.90
13416;DHT22;6779;50.150;8.680;2023-01-24T03:47:10;1.80;99.90
13416;DHT22;6779;50.150;8.680;2023-01-24T03:49:35;1.90;93.40
13416;DHT22;6779;50.150;8.680;2023-01-24T03:52:19;1.80;1.00
13416;DHT22;6779;50.150;8.680;2023-01-24T03:54:55;1.90;80.00
13416;DHT22;6779;50.150;8.680;2023-01-24T03:57:22;1.80;99.90
13416;DHT22;6779;50.150;8.680;2023-01-24T03:59:47;1.90;46.00
13416;DHT22;6779;50.150;8.680;2023-01-24T04:02:13;1.90;99.90
13416;DHT22;6779;50.150;8.680;2023-01-24T04:04:39;1.90;20.20
13416;DHT22;6779;50.150;8.680;2023-01-24T04:07:23;2.00;1.00
13416;DHT22;6779;50.150;8.680;2023-01-24T04:09:48;2.00;1.00
13416;DHT22;6779;50.150;8.680;2023-01-24T04:12:14;2.00;1.00
13416;DHT22;6779;50.150;8.680;2023-01-24T04:14:39;2.00;99.90
13416;DHT22;6779;50.150;8.680;2023-01-24T04:17:05;2.00;99.90
13416;DHT22;6779;50.150;8.680;2023-01-24T04:19:30;2.00;99.90
13416;DHT22;6779;50.150;8.680;2023-01-24T04:21:56;2.10;99.90
13416;DHT22;6779;50.150;8.680;2023-01-24T04:24:23;2.10;99.90
13416;DHT22;6779;50.150;8.680;2023-01-24T04:26:49;2.10;99.90
13416;DHT22;6779;50.150;8.680;2023-01-24T04:29:14;2.00;99.90
13416;DHT22;6779;50.150;8.680;2023-01-24T04:31:40;2.00;1.00
13416;DHT22;6779;50.150;8.680;2023-01-24T04:34:05;2.00;99.90
13416;DHT22;6779;50.150;8.680;2023-01-24T04:36:31;2.00;99.90
13416;DHT22;6779;50.150;8.680;2023-01-24T04:38:56;2.00;99.90
13416;DHT22;6779;50.150;8.680;2023-01-24T04:41:22;2.00;99.90
13416;DHT22;6779;50.150;8.680;2023-01-24T04:43:47;2.00;1.00
13416;DHT22;6779;50.150;8.680;2023-01-24T04:46:12;2.00;99.90
13416;DHT22;6779;50.150;8.680;2023-01-24T04:48:38;2.10;39.20
13416;DHT22;6779;50.150;8.680;2023-01-24T04:51:04;2.10;99.90
13416;DHT22;6779;50.150;8.680;2023-01-24T04:53:30;2.20;99.90
13416;DHT22;6779;50.150;8.680;2023-01-24T04:56:05;2.20;99.90
13416;DHT22;6779;50.150;8.680;2023-01-24T04:58:34;2.20;1.00
13416;DHT22;6779;50.150;8.680;2023-01-24T05:01:00;2.20;1.00
13416;DHT22;6779;50.150;8.680;2023-01-24T05:03:25;2.20;1.00
13416;DHT22;6779;50.150;8.680;2023-01-24T05:05:52;2.20;1.00
13416;DHT22;6779;50.150;8.680;2023-01-24T05:08:18;2.20;1.00
13416;DHT22;6779;50.150;8.680;2023-01-24T05:10:43;2.20;1.00
13416;DHT22;6779;50.150;8.680;2023-01-24T05:13:09;2.20;99.90
13416;DHT22;6779;50.150;8.680;2023-01-24T05:15:34;2.30;1.00
13416;DHT22;6779;50.150;8.680;2023-01-24T05:18:00;2.30;99.90
13416;DHT22;6779;50.150;8.680;2023-01-24T05:20:26;2.30;99.90
13416;DHT22;6779;50.150;8.680;2023-01-24T05:22:51;2.30;99.90
13416;DHT22;6779;50.150;8.680;2023-01-24T05:25:17;2.40;99.90
13416;DHT22;6779;50.150;8.680;2023-01-24T05:27:44;2.40;1.00
13416;DHT22;6779;50.150;8.680;2023-01-24T05:30:10;2.40;99.90
13416;DHT22;6779;50.150;8.680;2023-01-24T05:32:36;2.40;90.90
13416;DHT22;6779;50.150;8.680;2023-01-24T05:35:02;2.40;86.60
13416;DHT22;6779;50.150;8.680;2023-01-24T05:37:28;2.40;1.00
13416;DHT22;6779;50.150;8.680;2023-01-24T05:39:53;2.40;99.90
13416;DHT22;6779;50.150;8.680;2023-01-24T05:42:19;2.40;1.00
13416;DHT22;6779;50.150;8.680;2023-01-24T05:44:44;2.40;99.90
13416;DHT22;6779;50.150;8.680;2023-01-24T05:47:10;2.50;99.90
13416;DHT22;6779;50.150;8.680;2023-01-24T05:49:35;2.50;99.90
13416;DHT22;6779;50.150;8.680;2023-01-24T05:52:01;2.50;99.90
13416;DHT22;6779;50.150;8.680;2023-01-24T05:54:26;2.50;99.90
13416;DHT22;6779;50.150;8.680;2023-01-24T05:56:52;2.50;99.90
13416;DHT22;6779;50.150;8.680;2023-01-24T05:59:18;2.50;1.00
13416;DHT22;6779;50.150;8.680;2023-01-24T06:01:43;2.50;1.00
13416;DHT22;6779;50.150;8.680;2023-01-24T06:04:09;2.50;99.90
13416;DHT22;6779;50.150;8.680;2023-01-24T06:06:35;2.50;99.90
13416;DHT22;6779;50.150;8.680;2023-01-24T06:09:00;2.50;99.90
13416;DHT22;6779;50.150;8.680;2023-01-24T06:11:27;2.50;1.00
13416;DHT22;6779;50.150;8.680;2023-01-24T06:13:54;2.60;99.90
13416;DHT22;6779;50.150;8.680;2023-01-24T06:16:22;2.60;1.00
13416;DHT22;6779;50.150;8.680;2023-01-24T06:18:49;2.60;99.90
13416;DHT22;6779;50.150;8.680;2023-01-24T06:24:03;2.60;1.00
13416;DHT22;6779;50.150;8.680;2023-01-24T06:26:30;2.60;99.90
13416;DHT22;6779;50.150;8.680;2023-01-24T06:28:56;2.60;1.00
13416;DHT22;6779;50.150;8.680;2023-01-24T06:31:55;2.70;99.90
13416;DHT22;6779;50.150;8.680;2023-01-24T06:37:48;2.70;1.00
13416;DHT22;6779;50.150;8.680;2023-01-24T06:40:19;2.70;1.00
13416;DHT22;6779;50.150;8.680;2023-01-24T06:42:45;2.70;1.00
13416;DHT22;6779;50.150;8.680;2023-01-24T06:45:11;2.70;1.00
13416;DHT22;6779;50.150;8.680;2023-01-24T06:47:37;2.60;1.00
13416;DHT22;6779;50.150;8.680;2023-01-24T06:50:03;2.70;97.30
13416;DHT22;6779;50.150;8.680;2023-01-24T06:52:30;2.80;99.90
13416;DHT22;6779;50.150;8.680;2023-01-24T06:54:55;2.70;91.80
13416;DHT22;6779;50.150;8.680;2023-01-24T06:57:21;2.80;1.00
13416;DHT22;6779;50.150;8.680;2023-01-24T06:59:46;2.80;1.00
13416;DHT22;6779;50.150;8.680;2023-01-24T07:02:12;2.70;99.90
13416;DHT22;6779;50.150;8.680;2023-01-24T07:04:37;2.80;1.00
13416;DHT22;6779;50.150;8.680;2023-01-24T07:07:03;2.80;1.00
13416;DHT22;6779;50.150;8.680;2023-01-24T07:09:31;2.80;99.90
13416;DHT22;6779;50.150;8.680;2023-01-24T07:11:56;2.80;99.90
13416;DHT22;6779;50.150;8.680;2023-01-24T07:14:23;2.80;99.90
13416;DHT22;6779;50.150;8.680;2023-01-24T07:16:50;2.80;21.60
13416;DHT22;6779;50.150;8.680;2023-01-24T07:19:18;2.80;1.00
13416;DHT22;6779;50.150;8.680;2023-01-24T07:21:44;2.80;1.00
13416;DHT22;6779;50.150;8.680;2023-01-24T07:24:16;2.80;99.90
13416;DHT22;6779;50.150;8.680;2023-01-24T07:26:42;2.90;99.90
13416;DHT22;6779;50.150;8.680;2023-01-24T07:29:08;2.90;1.00
13416;DHT22;6779;50.150;8.680;2023-01-24T07:31:33;2.90;1.00
13416;DHT22;6779;50.150;8.680;2023-01-24T07:33:59;2.80;1.00
13416;DHT22;6779;50.150;8.680;2023-01-24T07:36:24;2.80;1.00
13416;DHT22;6779;50.150;8.680;2023-01-24T07:38:56;2.90;1.00
13416;DHT22;6779;50.150;8.680;2023-01-24T07:41:23;2.80;89.50
13416;DHT22;6779;50.150;8.680;2023-01-24T07:43:48;2.80;99.90
13416;DHT22;6779;50.150;8.680;2023-01-24T07:46:14;2.90;99.90
13416;DHT22;6779;50.150;8.680;2023-01-24T07:48:40;2.90;68.20
13416;DHT22;6779;50.150;8.680;2023-01-24T07:51:05;2.90;99.90
13416;DHT22;6779;50.150;8.680;2023-01-24T07:53:31;2.90;99.90
13416;DHT22;6779;50.150;8.680;2023-01-24T07:56:00;2.90;99.90
13416;DHT22;6779;50.150;8.680;2023-01-24T07:58:25;2.90;73.00
13416;DHT22;6779;50.150;8.680;2023-01-24T08:00:51;2.90;99.90
13416;DHT22;6779;50.150;8.680;2023-01-24T08:03:16;2.90;99.90
13416;DHT22;6779;50.150;8.680;2023-01-24T08:05:43;2.90;99.90
13416;DHT22;6779;50.150;8.680;2023-01-24T08:08:08;2.90;24.10
13416;DHT22;6779;50.150;8.680;2023-01-24T08:10:34;3.00;1.00
13416;DHT22;6779;50.150;8.680;2023-01-24T08:13:00;3.00;99.90
13416;DHT22;6779;50.150;8.680;2023-01-24T08:15:26;3.00;1.00
13416;DHT22;6779;50.150;8.680;2023-01-24T08:17:51;3.10;99.90
13416;DHT22;6779;50.150;8.680;2023-01-24T08:20:17;3.00;99.90
13416;DHT22;6779;50.150;8.680;2023-01-24T08:22:42;3.00;99.90
13416;DHT22;6779;50.150;8.680;2023-01-24T08:25:08;3.00;99.90
13416;DHT22;6779;50.150;8.680;2023-01-24T08:27:34;3.00;99.90
13416;DHT22;6779;50.150;8.680;2023-01-24T08:30:00;3.00;1.00
13416;DHT22;6779;50.150;8.680;2023-01-24T08:32:26;3.00;1.00
13416;DHT22;6779;50.150;8.680;2023-01-24T08:34:51;3.10;99.90
13416;DHT22;6779;50.150;8.680;2023-01-24T08:37:17;3.20;26.90
13416;DHT22;6779;50.150;8.680;2023-01-24T08:39:43;3.10;99.90
13416;DHT22;6779;50.150;8.680;2023-01-24T08:42:09;3.20;1.00
13416;DHT22;6779;50.150;8.680;2023-01-24T08:44:35;3.20;1.00
13416;DHT22;6779;50.150;8.680;2023-01-24T08:47:00;3.10;99.90
13416;DHT22;6779;50.150;8.680;2023-01-24T08:49:26;3.20;1.00
13416;DHT22;6779;50.150;8.680;2023-01-24T08:51:51;3.20;1.00
13416;DHT22;6779;50.150;8.680;2023-01-24T08:54:27;3.20;1.00
13416;DHT22;6779;50.150;8.680;2023-01-24T08:56:53;3.20;99.90
13416;DHT22;6779;50.150;8.680;2023-01-24T08:59:19;3.20;1.00
13416;DHT22;6779;50.150;8.680;2023-01-24T09:01:44;3.30;99.90
13416;DHT22;6779;50.150;8.680;2023-01-24T09:04:11;3.30;39.40
13416;DHT22;6779;50.150;8.680;2023-01-24T09:06:36;3.30;99.90
13416;DHT22;6779;50.150;8.680;2023-01-24T09:09:02;3.30;99.90
13416;DHT22;6779;50.150;8.680;2023-01-24T09:11:30;3.30;99.90
13416;DHT22;6779;50.150;8.680;2023-01-24T09:13:55;3.20;99.90
13416;DHT22;6779;50.150;8.680;2023-01-24T09:16:21;3.20;99.90
13416;DHT22;6779;50.150;8.680;2023-01-24T09:18:47;3.30;1.00
13416;DHT22;6779;50.150;8.680;2023-01-24T09:21:14;3.30;1.00
13416;DHT22;6779;50.150;8.680;2023-01-24T09:23:40;3.30;99.90
13416;DHT22;6779;50.150;8.680;2023-01-24T09:26:05;3.40;97.50
13416;DHT22;6779;50.150;8.680;2023-01-24T09:28:31;3.40;99.90
13416;DHT22;6779;50.150;8.680;2023-01-24T09:30:57;3.40;34.00
13416;DHT22;6779;50.150;8.680;2023-01-24T09:33:23;3.50;1.00
13416;DHT22;6779;50.150;8.680;2023-01-24T09:35:59;3.50;99.90
13416;DHT22;6779;50.150;8.680;2023-01-24T09:38:27;3.50;1.00
13416;DHT22;6779;50.150;8.680;2023-01-24T09:43:40;3.50;99.90
13416;DHT22;6779;50.150;8.680;2023-01-24T09:46:32;3.50;99.90
13416;DHT22;6779;50.150;8.680;2023-01-24T09:49:26;3.50;99.90
13416;DHT22;6779;50.150;8.680;2023-01-24T09:51:54;3.50;1.00
13416;DHT22;6779;50.150;8.680;2023-01-24T09:56:54;3.50;99.90
13416;DHT22;6779;50.150;8.680;2023-01-24T09:59:37;3.40;99.90
13416;DHT22;6779;50.150;8.680;2023-01-24T10:02:16;3.40;99.90
13416;DHT22;6779;50.150;8.680;2023-01-24T10:04:43;3.50;99.90
13416;DHT22;6779;50.150;8.680;2023-01-24T10:10:18;3.70;1.00
13416;DHT22;6779;50.150;8.680;2023-01-24T10:13:08;3.70;1.00
13416;DHT22;6779;50.150;8.680;2023-01-24T10:21:45;3.90;1.00
13416;DHT22;6779;50.150;8.680;2023-01-24T10:24:18;3.90;99.90
13416;DHT22;6779;50.150;8.680;2023-01-24T10:26:48;3.90;1.00
13416;DHT22;6779;50.150;8.680;2023-01-24T10:29:21;3.90;1.00
13416;DHT22;6779;50.150;8.680;2023-01-24T10:32:00;3.90;1.00
13416;DHT22;6779;50.150;8.680;2023-01-24T10:34:34;3.90;1.00
13416;DHT22;6779;50.150;8.680;2023-01-24T10:37:15;3.80;1.00
13416;DHT22;6779;50.150;8.680;2023-01-24T10:39:42;3.90;1.00
13416;DHT22;6779;50.150;8.680;2023-01-24T10:42:24;4.00;1.00
13416;DHT22;6779;50.150;8.680;2023-01-24T10:44:52;3.90;99.90
13416;DHT22;6779;50.150;8.680;2023-01-24T10:47:50;4.00;1.00
13416;DHT22;6779;50.150;8.680;2023-01-24T10:50:22;4.00;1.00
13416;DHT22;6779;50.150;8.680;2023-01-24T10:52:48;4.10;99.90
13416;DHT22;6779;50.150;8.680;2023-01-24T10:55:33;4.00;99.90
13416;DHT22;6779;50.150;8.680;2023-01-24T10:58:03;4.10;99.90
13416;DHT22;6779;50.150;8.680;2023-01-24T11:00:41;4.00;99.90
13416;DHT22;6779;50.150;8.680;2023-01-24T11:03:22;4.00;99.90
13416;DHT22;6779;50.150;8.680;2023-01-24T11:05:53;4.00;99.90
13416;DHT22;6779;50.150;8.680;2023-01-24T11:08:24;4.10;99.90
13416;DHT22;6779;50.150;8.680;2023-01-24T11:10:52;4.00;99.90
13416;DHT22;6779;50.150;8.680;2023-01-24T11:13:38;4.00;99.90
13416;DHT22;6779;50.150;8.680;2023-01-24T11:16:26;4.00;99.90
13416;DHT22;6779;50.150;8.680;2023-01-24T11:18:56;4.10;99.90
13416;DHT22;6779;50.150;8.680;2023-01-24T11:21:22;4.00;99.90
13416;DHT22;6779;50.150;8.680;2023-01-24T11:26:35;4.00;99.90
13416;DHT22;6779;50.150;8.680;2023-01-24T11:29:03;4.00;99.90
13416;DHT22;6779;50.150;8.680;2023-01-24T11:31:44;4.00;99.90
13416;DHT22;6779;50.150;8.680;2023-01-24T11:37:05;4.00;99.90
13416;DHT22;6779;50.150;8.680;2023-01-24T11:39:44;4.00;99.90
13416;DHT22;6779;50.150;8.680;2023-01-24T11:42:45;4.10;99.90
13416;DHT22;6779;50.150;8.680;2023-01-24T11:45:39;4.20;99.90
13416;DHT22;6779;50.150;8.680;2023-01-24T11:48:08;4.20;99.90
13416;DHT22;6779;50.150;8.680;2023-01-24T11:51:12;4.20;99.90
13416;DHT22;6779;50.150;8.680;2023-01-24T11:56:36;4.10;99.90
13416;DHT22;6779;50.150;8.680;2023-01-24T11:59:27;4.20;99.90
13416;DHT22;6779;50.150;8.680;2023-01-24T12:05:12;4.30;99.90
13416;DHT22;6779;50.150;8.680;2023-01-24T12:08:18;4.20;99.90
13416;DHT22;6779;50.150;8.680;2023-01-24T12:11:12;4.20;99.90
13416;DHT22;6779;50.150;8.680;2023-01-24T12:14:05;4.20;99.90
13416;DHT22;6779;50.150;8.680;2023-01-24T12:22:40;4.10;99.90
13416;DHT22;6779;50.150;8.680;2023-01-24T12:25:23;4.10;99.90
13416;DHT22;6779;50.150;8.680;2023-01-24T12:27:53;4.20;99.90
13416;DHT22;6779;50.150;8.680;2023-01-24T12:33:31;4.20;99.90
13416;DHT22;6779;50.150;8.680;2023-01-24T12:36:07;4.20;99.90
13416;DHT22;6779;50.150;8.680;2023-01-24T12:38:41;4.30;99.90
13416;DHT22;6779;50.150;8.680;2023-01-24T12:41:15;4.20;99.90
13416;DHT22;6779;50.150;8.680;2023-01-24T12:43:51;4.20;99.90
13416;DHT22;6779;50.150;8.680;2023-01-24T12:46:27;4.20;99.90
13416;DHT22;6779;50.150;8.680;2023-01-24T12:54:49;4.30;99.90
13416;DHT22;6779;50.150;8.680;2023-01-24T13:00:20;4.20;99.90
13416;DHT22;6779;50.150;8.680;2023-01-24T13:11:23;4.30;99.90
13416;DHT22;6779;50.150;8.680;2023-01-24T13:14:29;4.30;99.90
13416;DHT22;6779;50.150;8.680;2023-01-24T13:17:39;4.20;99.90
13416;DHT22;6779;50.150;8.680;2023-01-24T13:29:09;4.30;99.90
13416;DHT22;6779;50.150;8.680;2023-01-24T13:34:33;4.30;99.90
13416;DHT22;6779;50.150;8.680;2023-01-24T13:36:59;4.30;99.90
13416;DHT22;6779;50.150;8.680;2023-01-24T13:42:17;4.30;99.90
13416;DHT22;6779;50.150;8.680;2023-01-24T13:44:44;4.30;99.90
13416;DHT22;6779;50.150;8.680;2023-01-24T13:55:03;4.30;99.90
13416;DHT22;6779;50.150;8.680;2023-01-24T13:57:31;4.30;99.90
13416;DHT22;6779;50.150;8.680;2023-01-24T14:02:45;4.20;99.90
13416;DHT22;6779;50.150;8.680;2023-01-24T14:08:01;4.30;99.90
13416;DHT22;6779;50.150;8.680;2023-01-24T14:10:38;4.30;99.90
13416;DHT22;6779;50.150;8.680;2023-01-24T14:13:38;4.20;99.90
13416;DHT22;6779;50.150;8.680;2023-01-24T14:15:50;4.30;99.90
13416;DHT22;6779;50.150;8.680;2023-01-24T14:18:48;4.30;99.90
13416;DHT22;6779;50.150;8.680;2023-01-24T14:21:23;4.20;99.90
13416;DHT22;6779;50.150;8.680;2023-01-24T14:23:55;4.20;99.90
13416;DHT22;6779;50.150;8.680;2023-01-24T14:26:22;4.30;99.90
13416;DHT22;6779;50.150;8.680;2023-01-24T14:28:54;4.30;99.90
13416;DHT22;6779;50.150;8.680;2023-01-24T14:31:25;4.20;99.90
13416;DHT22;6779;50.150;8.680;2023-01-24T14:34:17;4.20;99.90
13416;DHT22;6779;50.150;8.680;2023-01-24T14:36:47;4.20;99.90
13416;DHT22;6779;50.150;8.680;2023-01-24T14:39:20;4.20;99.90
13416;DHT22;6779;50.150;8.680;2023-01-24T14:41:56;4.30;99.90
13416;DHT22;6779;50.150;8.680;2023-01-24T14:44:24;4.20;99.90
13416;DHT22;6779;50.150;8.680;2023-01-24T14:46:57;4.20;99.90
13416;DHT22;6779;50.150;8.680;2023-01-24T14:49:26;4.30;99.90
13416;DHT22;6779;50.150;8.680;2023-01-24T14:51:52;4.20;99.90
13416;DHT22;6779;50.150;8.680;2023-01-24T14:54:22;4.20;99.90
13416;DHT22;6779;50.150;8.680;2023-01-24T14:56:48;4.10;99.90
13416;DHT22;6779;50.150;8.680;2023-01-24T14:59:17;4.10;99.90
13416;DHT22;6779;50.150;8.680;2023-01-24T15:01:43;4.10;99.90
13416;DHT22;6779;50.150;8.680;2023-01-24T15:04:28;4.10;99.90
13416;DHT22;6779;50.150;8.680;2023-01-24T15:07:06;4.10;99.90
13416;DHT22;6779;50.150;8.680;2023-01-24T15:09:31;4.10;99.90
13416;DHT22;6779;50.150;8.680;2023-01-24T15:12:09;4.10;99.90
13416;DHT22;6779;50.150;8.680;2023-01-24T15:14:35;4.10;99.90
13416;DHT22;6779;50.150;8.680;2023-01-24T15:17:02;4.10;99.90
13416;DHT22;6779;50.150;8.680;2023-01-24T15:19:31;4.10;99.90
13416;DHT22;6779;50.150;8.680;2023-01-24T15:21:57;4.10;99.90
13416;DHT22;6779;50.150;8.680;2023-01-24T15:24:28;4.00;99.90
13416;DHT22;6779;50.150;8.680;2023-01-24T15:26:55;4.00;99.90
13416;DHT22;6779;50.150;8.680;2023-01-24T15:32:22;4.00;99.90
13416;DHT22;6779;50.150;8.680;2023-01-24T15:34:51;4.00;99.90
13416;DHT22;6779;50.150;8.680;2023-01-24T15:37:16;4.00;99.90
13416;DHT22;6779;50.150;8.680;2023-01-24T15:39:43;4.10;99.90
13416;DHT22;6779;50.150;8.680;2023-01-24T15:42:15;4.00;99.90
13416;DHT22;6779;50.150;8.680;2023-01-24T15:45:01;4.00;99.90
13416;DHT22;6779;50.150;8.680;2023-01-24T15:47:27;3.90;99.90
13416;DHT22;6779;50.150;8.680;2023-01-24T15:50:19;4.00;99.90
13416;DHT22;6779;50.150;8.680;2023-01-24T15:53:21;4.00;99.90
13416;DHT22;6779;50.150;8.680;2023-01-24T15:55:47;4.00;99.90
13416;DHT22;6779;50.150;8.680;2023-01-24T15:58:13;3.90;99.90
13416;DHT22;6779;50.150;8.680;2023-01-24T16:00:38;3.90;99.90
13416;DHT22;6779;50.150;8.680;2023-01-24T16:03:04;3.90;99.90
13416;DHT22;6779;50.150;8.680;2023-01-24T16:05:29;3.90;99.90
13416;DHT22;6779;50.150;8.680;2023-01-24T16:07:55;3.90;99.90
13416;DHT22;6779;50.150;8.680;2023-01-24T16:10:20;3.90;99.90
13416;DHT22;6779;50.150;8.680;2023-01-24T16:12:47;3.90;99.90
13416;DHT22;6779;50.150;8.680;2023-01-24T16:15:19;3.90;99.90
13416;DHT22;6779;50.150;8.680;2023-01-24T16:17:45;3.80;99.90
13416;DHT22;6779;50.150;8.680;2023-01-24T16:20:18;3.90;99.90
13416;DHT22;6779;50.150;8.680;2023-01-24T16:22:44;3.90;99.90
13416;DHT22;6779;50.150;8.680;2023-01-24T16:25:13;3.90;99.90
13416;DHT22;6779;50.150;8.680;2023-01-24T16:27:39;4.00;99.90
13416;DHT22;6779;50.150;8.680;2023-01-24T16:30:09;3.90;99.90
13416;DHT22;6779;50.150;8.680;2023-01-24T16:32:36;3.90;99.90
13416;DHT22;6779;50.150;8.680;2023-01-24T16:35:01;3.90;99.90
13416;DHT22;6779;50.150;8.680;2023-01-24T16:37:27;3.90;99.90
13416;DHT22;6779;50.150;8.680;2023-01-24T16:39:52;3.90;99.90
13416;DHT22;6779;50.150;8.680;2023-01-24T16:42:18;3.80;99.90
13416;DHT22;6779;50.150;8.680;2023-01-24T16:44:57;3.80;99.90
13416;DHT22;6779;50.150;8.680;2023-01-24T16:47:26;3.80;99.90
13416;DHT22;6779;50.150;8.680;2023-01-24T16:49:54;3.90;99.90
13416;DHT22;6779;50.150;8.680;2023-01-24T16:52:21;3.80;99.90
13416;DHT22;6779;50.150;8.680;2023-01-24T16:54:47;3.80;99.90
13416;DHT22;6779;50.150;8.680;2023-01-24T16:57:13;3.70;99.90
13416;DHT22;6779;50.150;8.680;2023-01-24T16:59:38;3.80;99.90
13416;DHT22;6779;50.150;8.680;2023-01-24T17:02:04;3.80;99.90
13416;DHT22;6779;50.150;8.680;2023-01-24T17:04:29;3.80;1.00
13416;DHT22;6779;50.150;8.680;2023-01-24T17:06:55;3.70;99.90
13416;DHT22;6779;50.150;8.680;2023-01-24T17:09:26;3.70;99.90
13416;DHT22;6779;50.150;8.680;2023-01-24T17:11:52;3.80;99.90
13416;DHT22;6779;50.150;8.680;2023-01-24T17:14:17;3.70;99.90
13416;DHT22;6779;50.150;8.680;2023-01-24T17:16:43;3.80;1.00
13416;DHT22;6779;50.150;8.680;2023-01-24T17:19:08;3.80;1.00
13416;DHT22;6779;50.150;8.680;2023-01-24T17:21:33;3.80;1.00
13416;DHT22;6779;50.150;8.680;2023-01-24T17:23:59;3.70;1.00
13416;DHT22;6779;50.150;8.680;2023-01-24T17:26:24;3.70;1.00
13416;DHT22;6779;50.150;8.680;2023-01-24T17:28:50;3.70;1.00
13416;DHT22;6779;50.150;8.680;2023-01-24T17:31:18;3.70;1.00
13416;DHT22;6779;50.150;8.680;2023-01-24T17:33:45;3.70;1.00
13416;DHT22;6779;50.150;8.680;2023-01-24T17:36:11;3.70;1.00
13416;DHT22;6779;50.150;8.680;2023-01-24T17:38:40;3.70;1.00
13416;DHT22;6779;50.150;8.680;2023-01-24T17:41:14;3.70;1.00
13416;DHT22;6779;50.150;8.680;2023-01-24T17:43:40;3.70;1.00
13416;DHT22;6779;50.150;8.680;2023-01-24T17:46:06;3.70;1.00
13416;DHT22;6779;50.150;8.680;2023-01-24T17:48:32;3.80;1.00
13416;DHT22;6779;50.150;8.680;2023-01-24T17:50:57;3.70;1.00
13416;DHT22;6779;50.150;8.680;2023-01-24T17:53:23;3.70;1.00
13416;DHT22;6779;50.150;8.680;2023-01-24T17:55:53;3.70;1.00
13416;DHT22;6779;50.150;8.680;2023-01-24T17:58:20;3.70;1.00